Ankeny, Iowa
Current Conditions -  °F | °C
As of 7:15 PM on Sunday 23 Nov 2014 (Local Time) from KIKV Reporting Station
Overcast Overcast  
Wind Chill: 35°   Ceiling: 1100
Heat Index: 43°   Visibility: 8mi
Dew Point: 41°   Wind: 17mph
Humidity: 93%   Direction: 320°NW
Pressure: 29.38"   Gusts: 32mph
Location:  41.73°N, 93.6°W
Report Text: KIKV 240115Z AUTO 32015G28KT 8SM BKN011 OVC015 06/05 A2938 RMK AO2
Loading
Personal Weather Stations






























Interactive Weather Map New forecast layout! Learn more

10-Day Weather Forecast

Advertisements
Track Severe Weather on mobile